createdAt,value
2023-04-25T00:03:34.905Z,100018.78
2023-04-25T00:07:38.137Z,100019.34
2023-04-25T00:11:42.242Z,100021.75
2023-04-25T00:15:47.386Z,100028.09
2023-04-25T00:19:50.945Z,100034.50
2023-04-25T00:23:54.525Z,100043.28
2023-04-25T00:27:57.442Z,100046.19
2023-04-25T00:32:02.770Z,100057.94
2023-04-25T00:36:06.107Z,100052.66
2023-04-25T00:40:09.538Z,100055.25
2023-04-25T00:44:14.497Z,100053.31
2023-04-25T00:48:19.486Z,100042.91
2023-04-25T00:52:23.501Z,100039.75
2023-04-25T00:56:26.878Z,100042.06
2023-04-25T01:00:29.976Z,100043.25
2023-04-25T01:04:34.517Z,100046.75
2023-04-25T01:08:39.501Z,100036.75
2023-04-25T01:12:43.069Z,100048.91
2023-04-25T01:16:46.964Z,100059.69
2023-04-25T01:20:52.639Z,100045.00
2023-04-25T01:24:58.293Z,100045.00
2023-04-25T01:29:01.799Z,100042.94
2023-04-25T01:33:05.653Z,100042.81
2023-04-25T01:37:08.715Z,100046.41
2023-04-25T01:41:13.206Z,100052.22
2023-04-25T01:45:16.504Z,100052.09
2023-04-25T01:49:19.546Z,100063.03
2023-04-25T01:53:23.777Z,100068.25
2023-04-25T01:57:28.203Z,100069.53
2023-04-25T02:01:31.572Z,100074.84
2023-04-25T02:05:49.360Z,100071.47
2023-04-25T02:09:52.641Z,100074.00
2023-04-25T02:13:58.328Z,100079.63
2023-04-25T02:18:14.150Z,100085.44
2023-04-25T02:22:17.694Z,100078.97
2023-04-25T02:26:20.818Z,100084.38
2023-04-25T02:30:25.080Z,100081.03
2023-04-25T02:34:28.074Z,100082.44
2023-04-25T02:38:31.119Z,100084.38
2023-04-25T02:42:34.100Z,100076.53
2023-04-25T02:46:39.736Z,100072.72
2023-04-25T02:50:43.324Z,100081.69
2023-04-25T02:54:46.242Z,100081.78
2023-04-25T02:58:49.485Z,100080.97
2023-04-25T03:02:53.971Z,100080.47
2023-04-25T03:06:58.085Z,100083.56
2023-04-25T03:11:01.300Z,100076.47
2023-04-25T03:15:04.834Z,100087.16
2023-04-25T03:19:09.369Z,100087.78
2023-04-25T03:23:12.456Z,100082.28
2023-04-25T03:27:18.421Z,100091.72
2023-04-25T03:31:21.408Z,100088.44
2023-04-25T03:35:26.186Z,100078.03
2023-04-25T03:39:29.699Z,100090.19
2023-04-25T03:43:33.236Z,100083.25
2023-04-25T03:47:41.469Z,100087.38
2023-04-25T03:51:46.592Z,100085.69
2023-04-25T03:55:50.175Z,100092.53
2023-04-25T03:59:53.157Z,100089.81
2023-04-25T04:03:57.042Z,100107.78
2023-04-25T04:08:03.143Z,100101.06
2023-04-25T04:12:07.149Z,100103.22
2023-04-25T04:16:11.220Z,100106.75
2023-04-25T04:20:14.443Z,100106.19
2023-04-25T04:24:19.432Z,100106.38
2023-04-25T04:28:37.254Z,100112.72
2023-04-25T04:32:50.676Z,100114.50
2023-04-25T04:36:53.839Z,100115.97
2023-04-25T04:40:58.999Z,100108.53
2023-04-25T04:45:10.075Z,100115.25
2023-04-25T04:49:33.364Z,100120.78
2023-04-25T04:53:59.310Z,100120.78
2023-04-25T04:58:18.723Z,100129.22
2023-04-25T05:02:35.069Z,100128.19
2023-04-25T05:06:56.890Z,100134.75
2023-04-25T05:11:20.007Z,100144.19
2023-04-25T05:15:41.407Z,100144.34
2023-04-25T05:20:08.102Z,100137.25
2023-04-25T05:24:29.550Z,100152.63
2023-04-25T05:29:00.901Z,100150.81
2023-04-25T05:33:20.026Z,100157.88
2023-04-25T05:37:23.042Z,100148.44
2023-04-25T05:41:32.211Z,100157.28
2023-04-25T05:45:39.331Z,100155.72
2023-04-25T05:50:03.167Z,100157.78
2023-04-25T05:54:18.561Z,100158.59
2023-04-25T05:58:21.618Z,100161.19
2023-04-25T06:02:24.842Z,100164.22
2023-04-25T06:06:31.287Z,100162.75
2023-04-25T06:10:36.026Z,100179.53
2023-04-25T06:14:39.269Z,100170.97
2023-04-25T06:18:42.300Z,100181.47
2023-04-25T06:22:47.139Z,100183.16
2023-04-25T06:26:50.633Z,100188.16
2023-04-25T06:30:53.656Z,100188.66
2023-04-25T06:34:57.203Z,100185.44
2023-04-25T06:39:01.682Z,100189.41
2023-04-25T06:43:04.785Z,100192.78
2023-04-25T06:47:26.150Z,100203.34
2023-04-25T06:51:31.152Z,100204.56
2023-04-25T06:55:36.457Z,100201.19
2023-04-25T06:59:52.858Z,100202.56
2023-04-25T07:03:56.049Z,100196.13
2023-04-25T07:07:59.933Z,100202.56
2023-04-25T07:12:04.488Z,100201.84
2023-04-25T07:16:07.725Z,100225.63
2023-04-25T07:20:12.792Z,100213.81
2023-04-25T07:24:16.595Z,100220.03
2023-04-25T07:28:24.422Z,100219.72
2023-04-25T07:32:27.690Z,100211.66
2023-04-25T07:36:32.040Z,100220.94
2023-04-25T07:40:35.142Z,100220.28
2023-04-25T07:44:44.033Z,100219.22
2023-04-25T07:48:50.404Z,100229.13
2023-04-25T07:52:53.615Z,100229.72
2023-04-25T07:57:12.351Z,100241.91
2023-04-25T08:01:17.632Z,100244.03
2023-04-25T08:05:31.781Z,100257.03
2023-04-25T08:09:40.611Z,100257.47
2023-04-25T08:13:49.143Z,100271.13
2023-04-25T08:17:53.771Z,100283.91
2023-04-25T08:21:57.533Z,100287.91
2023-04-25T08:26:08.225Z,100280.31
2023-04-25T08:30:14.638Z,100276.97
2023-04-25T08:34:21.116Z,100287.91
2023-04-25T08:38:25.775Z,100286.44
2023-04-25T08:42:31.267Z,100301.97
2023-04-25T08:46:35.117Z,100307.47
2023-04-25T08:50:52.751Z,100315.88
2023-04-25T08:54:56.537Z,100315.00
2023-04-25T08:58:59.928Z,100332.25
2023-04-25T09:03:03.897Z,100329.28
2023-04-25T09:07:11.185Z,100325.44
2023-04-25T09:11:15.972Z,100334.91
2023-04-25T09:15:20.733Z,100347.72
2023-04-25T09:19:43.056Z,100349.84
2023-04-25T09:23:54.216Z,100355.16
2023-04-25T09:27:57.994Z,100356.72
2023-04-25T09:32:14.974Z,100369.97
2023-04-25T09:36:19.005Z,100368.69
2023-04-25T09:40:50.750Z,100373.41
2023-04-25T09:45:03.000Z,100375.03
2023-04-25T09:49:08.939Z,100384.75
2023-04-25T09:53:19.973Z,100391.06
2023-04-25T09:57:40.852Z,100393.59
2023-04-25T10:01:45.350Z,100397.81
2023-04-25T10:05:55.746Z,100403.47
2023-04-25T10:10:01.543Z,100415.00
2023-04-25T10:14:06.951Z,100418.84
2023-04-25T10:18:10.716Z,100415.84
2023-04-25T10:22:15.229Z,100420.91
2023-04-25T10:26:18.322Z,100413.78
2023-04-25T10:30:22.566Z,100415.88
2023-04-25T10:34:40.695Z,100417.34
2023-04-25T10:38:44.434Z,100420.47
2023-04-25T10:42:47.296Z,100423.84
2023-04-25T10:46:51.642Z,100429.59
2023-04-25T10:51:08.596Z,100428.97
2023-04-25T10:55:11.617Z,100415.44
2023-04-25T10:59:14.911Z,100421.13
2023-04-25T11:03:19.680Z,100418.16
2023-04-25T11:07:25.864Z,100424.09
2023-04-25T11:11:28.726Z,100427.25
2023-04-25T11:15:31.590Z,100431.97
2023-04-25T11:19:36.027Z,100424.47
2023-04-25T11:23:39.306Z,100423.63
2023-04-25T11:27:51.670Z,100420.91
2023-04-25T11:31:54.754Z,100419.84
2023-04-25T11:35:59.254Z,100436.06
2023-04-25T11:40:02.168Z,100445.31
2023-04-25T11:44:05.460Z,100443.19
2023-04-25T11:48:08.531Z,100446.97
2023-04-25T11:52:13.004Z,100457.28
2023-04-25T11:56:16.182Z,100457.69
2023-04-25T12:00:21.132Z,100454.88
2023-04-25T12:04:24.989Z,100454.22
2023-04-25T12:08:29.493Z,100452.81
2023-04-25T12:12:34.501Z,100450.97
2023-04-25T12:16:44.324Z,100450.22
2023-04-25T12:20:47.644Z,100466.56
2023-04-25T12:24:54.205Z,100461.34
2023-04-25T12:28:57.225Z,100467.00
2023-04-25T12:33:00.262Z,100466.69
2023-04-25T12:37:03.242Z,100469.47
2023-04-25T12:41:07.541Z,100469.91
2023-04-25T12:45:10.899Z,100478.69
2023-04-25T12:49:18.539Z,100471.19
2023-04-25T12:53:22.614Z,100476.63
2023-04-25T12:57:26.854Z,100484.34
2023-04-25T13:01:29.997Z,100476.75
2023-04-25T13:05:32.914Z,100459.16
2023-04-25T13:09:35.926Z,100501.84
2023-04-25T13:13:41.167Z,100497.59
2023-04-25T13:17:44.437Z,100511.66
2023-04-25T13:21:47.469Z,100521.13
2023-04-25T13:25:50.464Z,100522.06
2023-04-25T13:29:55.180Z,100521.63
2023-04-25T13:33:58.079Z,100512.81
2023-04-25T13:38:01.267Z,100512.81
2023-04-25T13:42:04.226Z,100521.84
2023-04-25T13:46:09.728Z,100510.38
2023-04-25T13:50:16.904Z,100506.41
2023-04-25T13:54:19.798Z,100509.84
2023-04-25T13:58:23.460Z,100517.34
2023-04-25T14:02:27.981Z,100524.13
2023-04-25T14:06:30.884Z,100516.53
2023-04-25T14:10:33.910Z,100517.81
2023-04-25T14:14:36.825Z,100507.44
2023-04-25T14:18:41.082Z,100511.38
2023-04-25T14:22:44.806Z,100504.31
2023-04-25T14:26:47.818Z,100503.13
2023-04-25T14:30:50.696Z,100505.00
2023-04-25T14:34:54.925Z,100496.25
2023-04-25T14:38:58.054Z,100496.16
2023-04-25T14:43:00.919Z,100493.44
2023-04-25T14:47:03.952Z,100493.84
2023-04-25T14:51:08.484Z,100502.28
2023-04-25T14:55:11.569Z,100511.06
2023-04-25T14:59:14.525Z,100505.03
2023-04-25T15:03:18.541Z,100507.94
2023-04-25T15:07:23.112Z,100516.44
2023-04-25T15:11:26.037Z,100513.41
2023-04-25T15:15:29.078Z,100516.56
2023-04-25T15:19:31.942Z,100527.44
2023-04-25T15:23:36.269Z,100519.84
2023-04-25T15:27:42.514Z,100516.91
2023-04-25T15:31:46.732Z,100518.16
2023-04-25T15:35:49.742Z,100520.13
2023-04-25T15:40:02.612Z,100531.94
2023-04-25T15:44:05.639Z,100525.69
2023-04-25T15:48:08.712Z,100533.09
2023-04-25T15:52:11.732Z,100526.75
2023-04-25T15:56:16.009Z,100537.59
2023-04-25T16:00:21.278Z,100533.97
2023-04-25T16:04:25.314Z,100542.78
2023-04-25T16:08:29.767Z,100543.19
2023-04-25T16:12:34.285Z,100545.41
2023-04-25T16:16:37.321Z,100541.75
2023-04-25T16:20:40.801Z,100529.19
2023-04-25T16:24:43.741Z,100546.38
2023-04-25T16:28:48.140Z,100547.44
2023-04-25T16:32:51.031Z,100552.63
2023-04-25T16:36:55.714Z,100548.00
2023-04-25T16:40:59.688Z,100553.94
2023-04-25T16:45:05.064Z,100554.56
2023-04-25T16:49:08.337Z,100558.16
2023-04-25T16:53:11.514Z,100557.44
2023-04-25T16:57:14.792Z,100570.81
2023-04-25T17:01:20.322Z,100558.38
2023-04-25T17:05:23.612Z,100567.88
2023-04-25T17:09:28.698Z,100568.00
2023-04-25T17:13:33.173Z,100577.16
2023-04-25T17:17:37.737Z,100575.72
2023-04-25T17:21:41.123Z,100579.88
2023-04-25T17:25:44.396Z,100580.72
2023-04-25T17:29:47.345Z,100568.75
2023-04-25T17:33:51.867Z,100587.47
2023-04-25T17:37:54.902Z,100584.16
2023-04-25T17:46:01.304Z,100592.34
2023-04-25T17:50:07.661Z,100596.34
2023-04-25T17:54:10.713Z,100600.41
2023-04-25T17:58:15.117Z,100599.81
2023-04-25T18:02:18.227Z,100597.44
2023-04-25T18:06:25.024Z,100606.47
2023-04-25T18:10:28.019Z,100605.19
2023-04-25T18:14:34.972Z,100612.78
2023-04-25T18:18:38.117Z,100613.00
2023-04-25T18:22:42.885Z,100626.47
2023-04-25T18:26:45.920Z,100632.75
2023-04-25T18:30:50.328Z,100642.19
2023-04-25T18:34:53.226Z,100639.72
2023-04-25T18:38:59.640Z,100651.81
2023-04-25T18:43:06.178Z,100657.34
2023-04-25T18:47:10.226Z,100659.22
2023-04-25T18:51:14.419Z,100672.44
2023-04-25T18:55:18.944Z,100674.06
2023-04-25T18:59:22.970Z,100681.50
2023-04-25T19:03:27.276Z,100679.28
2023-04-25T19:07:30.971Z,100690.78
2023-04-25T19:11:35.483Z,100683.50
2023-04-25T19:15:39.517Z,100699.94
2023-04-25T19:19:42.610Z,100702.47
2023-04-25T19:23:45.524Z,100695.16
2023-04-25T19:27:49.961Z,100707.53
2023-04-25T19:31:52.944Z,100707.25
2023-04-25T19:35:55.968Z,100708.00
2023-04-25T19:39:59.052Z,100710.50
2023-04-25T19:44:04.753Z,100702.69
2023-04-25T19:48:10.462Z,100713.84
2023-04-25T19:52:14.974Z,100713.25
2023-04-25T19:56:18.164Z,100719.97
2023-04-25T20:00:22.654Z,100716.38
2023-04-25T20:04:26.421Z,100720.59
2023-04-25T20:08:29.371Z,100723.94
2023-04-25T20:12:32.375Z,100731.16
2023-04-25T20:16:36.690Z,100733.25
2023-04-25T20:20:41.117Z,100737.41
2023-04-25T20:24:43.994Z,100736.47
2023-04-25T20:28:47.569Z,100740.25
2023-04-25T20:32:51.919Z,100740.66
2023-04-25T20:36:56.173Z,100739.00
2023-04-25T20:40:59.734Z,100737.00
2023-04-25T20:45:08.281Z,100749.41
2023-04-25T20:49:12.968Z,100748.53
2023-04-25T20:53:16.808Z,100752.00
2023-04-25T20:57:19.920Z,100753.53
2023-04-25T21:01:23.024Z,100750.31
2023-04-25T21:05:27.318Z,100761.31
2023-04-25T21:09:30.554Z,100778.44
2023-04-25T21:13:33.742Z,100773.34
2023-04-25T21:17:36.732Z,100772.66
2023-04-25T21:21:41.278Z,100765.03
2023-04-25T21:25:44.367Z,100774.69
2023-04-25T21:29:47.412Z,100771.66
2023-04-25T21:33:50.347Z,100772.09
2023-04-25T21:37:54.873Z,100782.75
2023-04-25T21:42:00.066Z,100787.13
2023-04-25T21:50:09.337Z,100795.88
2023-04-25T21:54:13.636Z,100799.22
2023-04-25T21:58:16.693Z,100805.56
2023-04-25T22:02:19.991Z,100800.41
2023-04-25T22:06:23.121Z,100810.59
2023-04-25T22:10:27.454Z,100814.00
2023-04-25T22:14:31.683Z,100818.75
2023-04-25T22:18:34.949Z,100819.72
2023-04-25T22:22:37.950Z,100815.88
2023-04-25T22:26:42.764Z,100822.63
2023-04-25T22:30:45.789Z,100832.75
2023-04-25T22:34:48.969Z,100827.78
2023-04-25T22:38:53.140Z,100840.94
2023-04-25T22:42:57.893Z,100845.53
2023-04-25T22:47:01.852Z,100845.47
2023-04-25T22:51:06.246Z,100846.50
2023-04-25T22:55:10.551Z,100857.91
2023-04-25T22:59:15.809Z,100854.91
2023-04-25T23:03:19.349Z,100855.06
2023-04-25T23:07:22.363Z,100854.69
2023-04-25T23:11:25.282Z,100859.31
2023-04-25T23:15:31.425Z,100856.84
2023-04-25T23:19:35.023Z,100859.78
2023-04-25T23:23:38.209Z,100859.47
2023-04-25T23:27:41.785Z,100861.56
2023-04-25T23:31:46.147Z,100866.81
2023-04-25T23:35:49.074Z,100885.53
2023-04-25T23:39:52.013Z,100878.22
2023-04-25T23:43:54.921Z,100890.00
2023-04-25T23:47:59.296Z,100888.41
2023-04-25T23:52:03.762Z,100890.00
2023-04-25T23:56:06.786Z,100889.59
